Time;durP1;ratioP1;P1;durP2;ratioP2;P2;SDS_P1;SDS_P2;PMS_P1;PMS_P2;Temp;Humidity;BMP_temperature;BMP_pressure;BME280_temperature;BME280_humidity;BME280_pressure;Samples;Min_cycle;Max_cycle;Signal;HPM_P1;HPM_P2
2022/06/30 00:00:05;;;;;;;8.47;6.83;;;;;;;;;;5000744;28;20231;-75
2022/06/30 00:02:37;;;;;;;7.90;6.73;;;;;;;;;;5000042;28;20709;-75
2022/06/30 00:05:03;;;;;;;9.33;6.17;;;;;;;;;;5003294;28;20223;-75
2022/06/30 00:07:48;;;;;;;8.00;6.23;;;;;;;;;;4982719;28;20602;-75
2022/06/30 00:10:14;;;;;;;7.37;5.80;;;;;;;;;;5003211;28;20969;-75
2022/06/30 00:12:41;;;;;;;8.47;6.40;;;;;;;;;;5002500;28;20694;-75
2022/06/30 00:15:08;;;;;;;8.03;6.43;;;;;;;;;;5006530;28;20598;-75
2022/06/30 00:17:34;;;;;;;10.17;6.73;;;;;;;;;;4979933;28;217716;-75
2022/06/30 00:20:01;;;;;;;7.33;5.80;;;;;;;;;;5006083;28;20284;-75
2022/06/30 00:22:27;;;;;;;9.20;6.23;;;;;;;;;;5004587;28;20231;-75
2022/06/30 00:24:54;;;;;;;5.63;4.60;;;;;;;;;;5006309;28;20409;-75
2022/06/30 00:27:21;;;;;;;8.40;5.83;;;;;;;;;;5004439;28;20223;-75
2022/06/30 00:29:47;;;;;;;6.50;5.10;;;;;;;;;;4988425;28;20306;-75
2022/06/30 00:32:14;;;;;;;8.80;5.80;;;;;;;;;;5003779;28;20231;-75
2022/06/30 00:34:40;;;;;;;9.40;5.33;;;;;;;;;;5006476;28;20230;-75
2022/06/30 00:37:07;;;;;;;9.90;6.60;;;;;;;;;;5005184;28;20230;-75
2022/06/30 00:39:34;;;;;;;13.00;6.97;;;;;;;;;;5006913;28;20235;-75
2022/06/30 00:42:01;;;;;;;9.20;7.37;;;;;;;;;;5005154;28;20231;-76
2022/06/30 00:44:28;;;;;;;8.97;7.43;;;;;;;;;;5004419;28;20239;-75
2022/06/30 00:46:56;;;;;;;9.37;5.80;;;;;;;;;;5006443;28;20324;-75
2022/06/30 00:49:22;;;;;;;10.87;6.47;;;;;;;;;;4986590;28;20650;-75
2022/06/30 00:51:49;;;;;;;12.93;7.60;;;;;;;;;;5005959;28;20281;-75
2022/06/30 00:54:16;;;;;;;8.43;6.80;;;;;;;;;;5003683;28;20234;-75
2022/06/30 00:56:44;;;;;;;7.23;6.53;;;;;;;;;;4988171;28;20575;-75
2022/06/30 00:59:12;;;;;;;9.33;7.30;;;;;;;;;;4986958;28;20226;-75
2022/06/30 01:01:39;;;;;;;8.53;6.33;;;;;;;;;;4982641;28;21455;-75
2022/06/30 01:04:06;;;;;;;10.13;7.27;;;;;;;;;;4954558;28;20698;-75
2022/06/30 01:06:33;;;;;;;8.90;6.70;;;;;;;;;;5005777;28;20590;-75
2022/06/30 01:08:59;;;;;;;8.27;6.27;;;;;;;;;;4986590;28;20223;-75
2022/06/30 01:14:11;;;;;;;8.53;6.43;;;;;;;;;;5003558;28;20227;-75
2022/06/30 01:16:38;;;;;;;10.00;6.97;;;;;;;;;;5005637;28;20239;-75
2022/06/30 01:19:05;;;;;;;11.40;7.10;;;;;;;;;;5003849;28;20227;-75
2022/06/30 01:21:32;;;;;;;10.87;6.80;;;;;;;;;;5005836;28;20266;-74
2022/06/30 01:23:58;;;;;;;10.20;6.20;;;;;;;;;;4999986;28;20235;-75
2022/06/30 01:26:25;;;;;;;10.53;7.20;;;;;;;;;;4986170;28;221878;-75
2022/06/30 01:28:51;;;;;;;12.30;6.87;;;;;;;;;;5000704;28;20235;-75
2022/06/30 01:31:18;;;;;;;11.17;7.53;;;;;;;;;;4988071;28;20231;-75
2022/06/30 01:33:45;;;;;;;10.23;7.77;;;;;;;;;;5002599;28;20757;-75
2022/06/30 01:36:12;;;;;;;10.13;7.17;;;;;;;;;;5003370;28;20227;-75
2022/06/30 01:38:39;;;;;;;10.07;6.70;;;;;;;;;;5003449;28;20223;-75
2022/06/30 01:41:05;;;;;;;9.93;7.30;;;;;;;;;;5003486;28;20235;-75
2022/06/30 01:43:32;;;;;;;12.33;6.87;;;;;;;;;;5001558;28;20645;-75
2022/06/30 01:45:58;;;;;;;11.17;6.40;;;;;;;;;;5005182;28;20649;-75
2022/06/30 01:48:25;;;;;;;10.67;5.97;;;;;;;;;;4989655;28;39741;-75
2022/06/30 01:50:51;;;;;;;10.07;6.90;;;;;;;;;;4997789;28;20230;-75
2022/06/30 01:53:18;;;;;;;10.27;7.20;;;;;;;;;;4997756;28;20318;-75
2022/06/30 01:55:45;;;;;;;12.57;6.80;;;;;;;;;;5004767;28;20242;-75
2022/06/30 01:58:11;;;;;;;9.73;6.07;;;;;;;;;;4987948;28;20223;-75
2022/06/30 02:00:38;;;;;;;9.97;6.50;;;;;;;;;;5002528;28;20227;-75
2022/06/30 02:03:05;;;;;;;9.70;6.43;;;;;;;;;;4986990;28;20235;-75
2022/06/30 02:05:31;;;;;;;7.47;5.87;;;;;;;;;;5002940;28;20598;-75
2022/06/30 02:07:58;;;;;;;8.90;7.23;;;;;;;;;;4985059;28;20654;-75
2022/06/30 02:10:25;;;;;;;8.63;6.33;;;;;;;;;;4988575;28;20238;-75
2022/06/30 02:12:52;;;;;;;7.73;6.57;;;;;;;;;;4984914;28;20302;-75
2022/06/30 02:15:19;;;;;;;8.30;6.47;;;;;;;;;;5000103;28;20226;-75
2022/06/30 02:17:46;;;;;;;6.87;6.10;;;;;;;;;;5001286;28;20223;-75
2022/06/30 02:20:12;;;;;;;10.30;6.40;;;;;;;;;;5003182;28;20499;-75
2022/06/30 02:22:41;;;;;;;8.87;6.30;;;;;;;;;;4984648;28;20220;-75
2022/06/30 02:25:08;;;;;;;8.47;6.33;;;;;;;;;;5001304;28;20224;-75
2022/06/30 02:27:35;;;;;;;12.80;7.30;;;;;;;;;;5000549;28;21425;-75
2022/06/30 02:30:01;;;;;;;11.07;8.43;;;;;;;;;;4993760;28;230351;-75
2022/06/30 02:32:28;;;;;;;12.40;9.40;;;;;;;;;;4986821;28;20230;-76
2022/06/30 02:34:55;;;;;;;13.27;8.73;;;;;;;;;;5001596;28;22652;-77
2022/06/30 02:37:39;;;;;;;12.30;8.30;;;;;;;;;;4972624;28;20222;-77
2022/06/30 02:40:07;;;;;;;14.80;9.83;;;;;;;;;;5003265;28;20246;-76
2022/06/30 02:42:51;;;;;;;16.73;9.07;;;;;;;;;;5002180;28;20226;-77
2022/06/30 02:45:18;;;;;;;20.53;10.27;;;;;;;;;;5001431;28;20227;-76
2022/06/30 02:48:02;;;;;;;16.47;9.27;;;;;;;;;;4982356;28;20228;-77
2022/06/30 02:50:29;;;;;;;16.90;9.57;;;;;;;;;;4973949;28;229762;-77
2022/06/30 02:53:13;;;;;;;15.43;8.67;;;;;;;;;;4970223;28;20235;-77
2022/06/30 02:55:39;;;;;;;13.83;8.70;;;;;;;;;;5004116;28;20219;-76
2022/06/30 02:58:06;;;;;;;17.60;8.37;;;;;;;;;;4994051;28;220105;-77
2022/06/30 03:00:33;;;;;;;13.80;9.00;;;;;;;;;;4999927;28;20231;-77
2022/06/30 03:02:59;;;;;;;18.63;9.67;;;;;;;;;;5002339;28;20243;-73
2022/06/30 03:05:26;;;;;;;14.87;9.07;;;;;;;;;;5004596;28;20235;-73
2022/06/30 03:07:52;;;;;;;16.90;9.57;;;;;;;;;;4984624;28;20231;-69
2022/06/30 03:10:22;;;;;;;13.80;10.63;;;;;;;;;;4985571;28;20624;-72
2022/06/30 03:12:48;;;;;;;22.77;11.93;;;;;;;;;;5001686;28;20270;-72
2022/06/30 03:15:15;;;;;;;21.07;11.10;;;;;;;;;;4986039;28;20295;-72
2022/06/30 03:17:42;;;;;;;19.97;11.90;;;;;;;;;;5001317;28;20231;-69
2022/06/30 03:20:09;;;;;;;19.13;11.47;;;;;;;;;;5003323;28;20736;-69
2022/06/30 03:22:35;;;;;;;15.73;11.03;;;;;;;;;;4988699;28;20313;-73
2022/06/30 03:25:02;;;;;;;16.43;10.63;;;;;;;;;;4978049;28;20291;-73
2022/06/30 03:27:29;;;;;;;16.07;11.37;;;;;;;;;;4960107;28;20246;-71
2022/06/30 03:29:56;;;;;;;14.80;10.43;;;;;;;;;;4994628;28;20235;-73
2022/06/30 03:32:22;;;;;;;14.37;11.13;;;;;;;;;;4981048;28;22698;-73
2022/06/30 03:34:49;;;;;;;19.93;11.33;;;;;;;;;;4985941;28;213035;-73
2022/06/30 03:37:16;;;;;;;17.53;11.70;;;;;;;;;;4996773;28;20668;-73
2022/06/30 03:39:42;;;;;;;16.70;11.50;;;;;;;;;;4987826;28;212860;-72
2022/06/30 03:42:09;;;;;;;20.13;12.93;;;;;;;;;;4996299;28;20710;-70
2022/06/30 03:44:36;;;;;;;17.20;12.77;;;;;;;;;;4971783;28;212289;-74
2022/06/30 03:47:02;;;;;;;16.20;13.30;;;;;;;;;;4990343;28;25102;-69
2022/06/30 03:49:30;;;;;;;19.20;13.00;;;;;;;;;;4976072;28;20237;-71
2022/06/30 03:51:56;;;;;;;20.33;12.13;;;;;;;;;;4999727;28;20605;-71
2022/06/30 03:54:23;;;;;;;15.63;11.33;;;;;;;;;;4979958;28;20314;-71
2022/06/30 03:56:50;;;;;;;17.50;11.57;;;;;;;;;;4940671;28;231958;-71
2022/06/30 03:59:35;;;;;;;20.03;10.53;;;;;;;;;;4998837;28;20219;-71
2022/06/30 04:02:02;;;;;;;20.43;11.60;;;;;;;;;;4952373;28;20734;-72
2022/06/30 04:04:29;;;;;;;16.37;11.20;;;;;;;;;;4997536;28;24971;-73
2022/06/30 04:06:55;;;;;;;14.93;11.00;;;;;;;;;;4981999;28;20267;-72
2022/06/30 04:09:22;;;;;;;14.47;11.60;;;;;;;;;;4992989;28;20541;-72
2022/06/30 04:11:49;;;;;;;15.67;10.93;;;;;;;;;;5000414;28;20222;-71
2022/06/30 04:14:15;;;;;;;20.93;11.37;;;;;;;;;;4998423;28;20594;-71
2022/06/30 04:16:43;;;;;;;18.13;11.03;;;;;;;;;;4984249;28;21447;-74
2022/06/30 04:19:10;;;;;;;19.87;11.67;;;;;;;;;;4942802;28;20227;-74
2022/06/30 04:21:38;;;;;;;17.73;12.27;;;;;;;;;;4954658;28;228310;-75
2022/06/30 04:24:05;;;;;;;17.87;11.67;;;;;;;;;;4978856;28;20578;-74
2022/06/30 04:26:31;;;;;;;18.77;12.10;;;;;;;;;;4986799;28;21775;-75
2022/06/30 04:28:58;;;;;;;16.63;12.57;;;;;;;;;;4982439;28;20242;-73
2022/06/30 04:34:10;;;;;;;20.10;12.10;;;;;;;;;;4903756;28;241265;-75
2022/06/30 04:36:39;;;;;;;20.43;12.63;;;;;;;;;;4991376;28;20258;-71
2022/06/30 04:39:05;;;;;;;18.63;12.87;;;;;;;;;;4981940;28;22301;-70
2022/06/30 04:41:32;;;;;;;18.43;12.90;;;;;;;;;;4983152;28;20850;-73
2022/06/30 04:43:59;;;;;;;22.47;13.30;;;;;;;;;;4981631;28;20711;-75
2022/06/30 04:46:26;;;;;;;23.43;14.67;;;;;;;;;;4993905;28;34059;-76
2022/06/30 04:48:53;;;;;;;21.27;14.17;;;;;;;;;;4973356;28;20385;-76
2022/06/30 04:51:19;;;;;;;22.83;14.27;;;;;;;;;;4981167;28;27082;-69
2022/06/30 04:53:46;;;;;;;19.40;13.63;;;;;;;;;;4996314;28;41514;-72
2022/06/30 04:56:14;;;;;;;21.53;13.93;;;;;;;;;;4983102;28;218453;-71
2022/06/30 04:58:40;;;;;;;23.77;15.20;;;;;;;;;;4967285;28;20581;-75
2022/06/30 05:01:07;;;;;;;28.23;15.73;;;;;;;;;;4998487;28;20243;-72
2022/06/30 05:03:34;;;;;;;22.17;15.47;;;;;;;;;;4998398;28;21012;-74
2022/06/30 05:06:00;;;;;;;22.47;15.43;;;;;;;;;;4974130;28;232415;-75
2022/06/30 05:08:27;;;;;;;24.80;16.10;;;;;;;;;;4984168;28;20230;-70
2022/06/30 05:10:54;;;;;;;24.20;16.83;;;;;;;;;;4950048;28;37175;-71
2022/06/30 05:13:25;;;;;;;24.20;17.13;;;;;;;;;;4995884;28;20253;-72
2022/06/30 05:15:52;;;;;;;22.37;15.83;;;;;;;;;;4936274;28;20280;-73
2022/06/30 05:18:18;;;;;;;25.33;17.60;;;;;;;;;;4994195;28;34651;-73
2022/06/30 05:20:45;;;;;;;21.93;18.07;;;;;;;;;;4990491;28;214679;-70
2022/06/30 05:23:29;;;;;;;23.60;17.90;;;;;;;;;;4949365;28;20219;-72
2022/06/30 05:28:42;;;;;;;21.30;17.17;;;;;;;;;;4977532;28;20245;-71
2022/06/30 05:31:08;;;;;;;24.57;17.73;;;;;;;;;;4958931;28;214348;-73
2022/06/30 05:33:35;;;;;;;22.53;16.93;;;;;;;;;;4974841;28;223670;-73
2022/06/30 05:36:02;;;;;;;21.73;16.50;;;;;;;;;;4998308;28;20231;-72
2022/06/30 05:38:29;;;;;;;18.27;13.50;;;;;;;;;;4950628;28;20234;-72
2022/06/30 05:40:55;;;;;;;19.67;14.60;;;;;;;;;;4997398;28;20238;-71
2022/06/30 05:43:22;;;;;;;16.53;11.60;;;;;;;;;;4981039;28;20231;-72
2022/06/30 05:45:51;;;;;;;17.07;12.97;;;;;;;;;;4990375;28;213559;-73
2022/06/30 05:48:18;;;;;;;18.43;12.10;;;;;;;;;;4979675;28;235305;-75
2022/06/30 05:50:45;;;;;;;19.37;12.90;;;;;;;;;;4974834;28;20814;-73
2022/06/30 05:53:12;;;;;;;15.47;12.57;;;;;;;;;;4951675;28;229759;-73
2022/06/30 05:55:39;;;;;;;15.97;12.23;;;;;;;;;;4972831;28;227608;-73
2022/06/30 05:58:06;;;;;;;16.90;11.80;;;;;;;;;;4962613;28;48163;-75
2022/06/30 06:00:32;;;;;;;15.00;11.20;;;;;;;;;;4983332;28;239260;-74
2022/06/30 06:03:00;;;;;;;16.23;11.40;;;;;;;;;;4889306;28;219709;-72
2022/06/30 06:05:27;;;;;;;13.77;11.67;;;;;;;;;;4995857;28;20219;-70
2022/06/30 06:07:54;;;;;;;14.63;10.53;;;;;;;;;;4995652;28;20246;-71
2022/06/30 06:10:21;;;;;;;13.17;10.43;;;;;;;;;;4989386;28;20235;-71
2022/06/30 06:12:47;;;;;;;14.83;9.87;;;;;;;;;;4996372;28;20234;-71
2022/06/30 06:15:14;;;;;;;13.10;9.00;;;;;;;;;;5000017;28;20704;-70
2022/06/30 06:17:41;;;;;;;15.03;8.33;;;;;;;;;;4998634;28;20238;-71
2022/06/30 06:20:09;;;;;;;12.43;8.23;;;;;;;;;;4976678;28;221415;-70
2022/06/30 06:22:35;;;;;;;10.73;7.23;;;;;;;;;;4988454;28;213372;-72
2022/06/30 06:25:02;;;;;;;9.80;6.60;;;;;;;;;;4996143;28;20231;-69
2022/06/30 06:27:29;;;;;;;10.27;6.50;;;;;;;;;;4978249;28;20219;-71
2022/06/30 06:29:55;;;;;;;13.37;6.77;;;;;;;;;;4979762;28;20235;-71
2022/06/30 06:32:22;;;;;;;9.87;6.50;;;;;;;;;;4985698;28;20344;-70
2022/06/30 06:34:49;;;;;;;11.93;5.77;;;;;;;;;;4971882;28;221160;-71
2022/06/30 06:37:15;;;;;;;9.07;6.57;;;;;;;;;;4981190;28;37151;-70
2022/06/30 06:39:42;;;;;;;11.80;6.73;;;;;;;;;;4965330;28;23870;-75
2022/06/30 06:42:09;;;;;;;11.90;6.87;;;;;;;;;;4979056;28;20305;-75
2022/06/30 06:44:38;;;;;;;12.43;6.70;;;;;;;;;;4984342;28;20690;-71
2022/06/30 06:47:05;;;;;;;10.70;7.27;;;;;;;;;;5002802;28;20243;-70
2022/06/30 06:49:32;;;;;;;11.73;6.10;;;;;;;;;;4990419;28;20231;-71
2022/06/30 06:51:58;;;;;;;9.30;6.37;;;;;;;;;;4998284;28;20227;-70
2022/06/30 06:54:25;;;;;;;8.50;6.30;;;;;;;;;;5002872;28;20597;-71
2022/06/30 06:56:51;;;;;;;11.83;7.13;;;;;;;;;;4970411;28;27128;-73
2022/06/30 06:59:38;;;;;;;10.33;6.13;;;;;;;;;;4994121;28;20230;-74
2022/06/30 07:02:05;;;;;;;10.40;5.90;;;;;;;;;;4984863;28;20258;-72
2022/06/30 07:04:49;;;;;;;8.03;5.80;;;;;;;;;;5003595;28;20726;-73
2022/06/30 07:07:16;;;;;;;9.20;6.60;;;;;;;;;;5001726;28;20231;-73
2022/06/30 07:09:43;;;;;;;10.27;6.27;;;;;;;;;;5003305;28;27127;-72
2022/06/30 07:12:09;;;;;;;10.73;6.77;;;;;;;;;;4986901;28;20223;-71
2022/06/30 07:14:36;;;;;;;12.47;7.93;;;;;;;;;;5002221;28;20790;-72
2022/06/30 07:17:03;;;;;;;12.80;7.30;;;;;;;;;;4999768;28;22333;-72
2022/06/30 07:19:29;;;;;;;15.20;8.93;;;;;;;;;;5002467;28;20230;-72
2022/06/30 07:21:56;;;;;;;18.37;10.03;;;;;;;;;;4999443;28;20227;-73
2022/06/30 07:24:23;;;;;;;17.67;9.43;;;;;;;;;;5002190;28;20277;-73
2022/06/30 07:26:50;;;;;;;20.20;9.93;;;;;;;;;;5001648;28;20227;-73
2022/06/30 07:29:17;;;;;;;18.77;8.97;;;;;;;;;;5003756;28;20243;-73
2022/06/30 07:31:44;;;;;;;14.40;6.87;;;;;;;;;;4983373;28;20322;-74
2022/06/30 07:34:11;;;;;;;11.10;7.07;;;;;;;;;;5002610;28;20291;-73
2022/06/30 07:36:40;;;;;;;9.13;7.23;;;;;;;;;;5001675;28;20319;-73
2022/06/30 07:39:06;;;;;;;8.97;7.13;;;;;;;;;;5002746;28;20281;-73
2022/06/30 07:41:33;;;;;;;10.10;6.73;;;;;;;;;;4968619;28;20701;-74
2022/06/30 07:44:01;;;;;;;9.90;6.10;;;;;;;;;;5003412;28;20231;-73
2022/06/30 07:46:28;;;;;;;9.60;6.27;;;;;;;;;;4981110;28;20707;-74
2022/06/30 07:48:59;;;;;;;8.40;6.07;;;;;;;;;;4998350;28;20227;-73
2022/06/30 07:51:26;;;;;;;8.97;5.40;;;;;;;;;;4996654;28;20309;-73
2022/06/30 07:53:53;;;;;;;8.97;5.10;;;;;;;;;;4983838;28;20314;-73
2022/06/30 07:56:19;;;;;;;9.10;5.50;;;;;;;;;;4997764;28;20254;-73
2022/06/30 07:58:47;;;;;;;8.73;5.30;;;;;;;;;;5000240;28;20684;-73
2022/06/30 08:01:14;;;;;;;10.03;5.80;;;;;;;;;;5000945;28;20234;-74
2022/06/30 08:03:41;;;;;;;6.80;5.47;;;;;;;;;;4997734;28;20277;-73
2022/06/30 08:06:25;;;;;;;9.70;5.93;;;;;;;;;;5002799;28;20210;-73
2022/06/30 08:08:52;;;;;;;6.30;4.60;;;;;;;;;;5001702;28;20219;-73
2022/06/30 08:11:19;;;;;;;6.17;4.33;;;;;;;;;;5003093;28;20246;-73
2022/06/30 08:13:45;;;;;;;6.37;4.30;;;;;;;;;;4999266;28;31363;-73
2022/06/30 08:16:12;;;;;;;6.97;4.80;;;;;;;;;;5002773;28;20238;-73
2022/06/30 08:18:39;;;;;;;7.67;4.60;;;;;;;;;;4983965;28;20744;-73
2022/06/30 08:21:06;;;;;;;5.47;4.27;;;;;;;;;;5001156;28;20283;-73
2022/06/30 08:23:33;;;;;;;7.30;4.07;;;;;;;;;;4980265;28;20223;-73
2022/06/30 08:25:59;;;;;;;5.90;4.17;;;;;;;;;;5002854;28;20594;-73
2022/06/30 08:28:27;;;;;;;6.60;3.93;;;;;;;;;;4997161;28;20228;-73
2022/06/30 08:30:53;;;;;;;5.80;3.93;;;;;;;;;;4995567;28;217635;-73
2022/06/30 08:33:20;;;;;;;9.77;4.17;;;;;;;;;;4984881;28;20223;-73
2022/06/30 08:35:48;;;;;;;5.80;3.80;;;;;;;;;;5006552;28;20315;-73
2022/06/30 08:38:25;;;;;;;5.57;3.60;;;;;;;;;;4988898;28;20674;-73
2022/06/30 08:43:37;;;;;;;6.07;3.70;;;;;;;;;;5002417;28;20231;-74
2022/06/30 08:46:03;;;;;;;5.00;3.67;;;;;;;;;;4971818;28;20317;-73
2022/06/30 08:48:30;;;;;;;4.27;3.60;;;;;;;;;;4987107;28;20229;-73
2022/06/30 08:51:03;;;;;;;6.80;3.50;;;;;;;;;;5006433;28;20231;-73
2022/06/30 08:53:31;;;;;;;5.27;3.50;;;;;;;;;;5004829;28;20234;-71
2022/06/30 08:55:58;;;;;;;5.80;3.30;;;;;;;;;;5006611;28;20223;-72
2022/06/30 08:58:27;;;;;;;6.37;3.87;;;;;;;;;;4986451;28;20234;-72
2022/06/30 09:00:54;;;;;;;6.57;3.77;;;;;;;;;;4963749;28;217170;-72
2022/06/30 09:03:21;;;;;;;7.20;4.17;;;;;;;;;;4981735;28;20234;-73
2022/06/30 09:05:48;;;;;;;6.43;3.63;;;;;;;;;;5005500;28;20227;-72
2022/06/30 09:08:14;;;;;;;9.00;4.00;;;;;;;;;;5004588;28;20227;-73
2022/06/30 09:10:52;;;;;;;10.97;4.00;;;;;;;;;;4972441;28;20245;-73
2022/06/30 09:13:19;;;;;;;6.97;4.27;;;;;;;;;;4987856;28;20227;-73
2022/06/30 09:15:47;;;;;;;8.83;4.43;;;;;;;;;;5004049;28;20263;-73
2022/06/30 09:18:20;;;;;;;8.30;4.03;;;;;;;;;;5004473;28;20235;-74
2022/06/30 09:20:47;;;;;;;6.13;3.97;;;;;;;;;;4973217;28;20619;-73
2022/06/30 09:23:21;;;;;;;8.93;4.40;;;;;;;;;;5004695;28;20223;-73
2022/06/30 09:25:49;;;;;;;6.93;3.90;;;;;;;;;;4972368;28;20629;-73
2022/06/30 09:28:16;;;;;;;8.07;3.93;;;;;;;;;;4986174;28;20633;-74
2022/06/30 09:30:42;;;;;;;9.90;4.00;;;;;;;;;;4987628;28;20317;-73
2022/06/30 09:33:09;;;;;;;11.90;4.53;;;;;;;;;;4985993;28;20691;-73
2022/06/30 09:35:38;;;;;;;7.10;4.10;;;;;;;;;;5005317;28;20980;-73
2022/06/30 09:38:09;;;;;;;4.57;3.50;;;;;;;;;;5004594;28;20220;-72
2022/06/30 09:40:36;;;;;;;7.20;3.93;;;;;;;;;;5003138;28;20235;-73
2022/06/30 09:43:04;;;;;;;5.87;3.90;;;;;;;;;;4995924;28;20235;-72
2022/06/30 09:45:33;;;;;;;17.33;4.13;;;;;;;;;;4995816;28;20232;-72
2022/06/30 09:48:00;;;;;;;7.63;3.83;;;;;;;;;;4985866;28;20635;-73
2022/06/30 09:50:28;;;;;;;5.07;3.60;;;;;;;;;;5002983;28;20227;-72
2022/06/30 09:53:04;;;;;;;5.90;3.70;;;;;;;;;;5001427;28;20238;-72
2022/06/30 09:55:44;;;;;;;5.67;3.63;;;;;;;;;;4986064;28;20297;-73
2022/06/30 09:58:12;;;;;;;5.60;3.40;;;;;;;;;;4985601;28;20231;-71
2022/06/30 10:00:45;;;;;;;6.63;3.87;;;;;;;;;;5002320;28;20269;-75
2022/06/30 10:03:12;;;;;;;7.23;3.60;;;;;;;;;;4990410;28;20314;-72
2022/06/30 10:05:43;;;;;;;6.50;4.00;;;;;;;;;;5003587;28;20262;-73
2022/06/30 10:08:11;;;;;;;5.00;3.87;;;;;;;;;;4986835;28;20633;-73
2022/06/30 10:10:37;;;;;;;6.60;3.50;;;;;;;;;;5004369;28;20258;-73
2022/06/30 10:13:04;;;;;;;8.00;4.27;;;;;;;;;;5003111;28;20234;-72
2022/06/30 10:15:32;;;;;;;6.93;4.10;;;;;;;;;;4998093;28;20238;-72
2022/06/30 10:17:58;;;;;;;6.13;3.90;;;;;;;;;;4977616;28;20226;-73
2022/06/30 10:20:26;;;;;;;5.87;3.67;;;;;;;;;;5005093;28;20230;-73
2022/06/30 10:22:53;;;;;;;6.33;4.03;;;;;;;;;;4970111;28;20748;-73
2022/06/30 10:25:20;;;;;;;4.93;3.47;;;;;;;;;;4987011;28;20231;-73
2022/06/30 10:27:47;;;;;;;5.23;3.73;;;;;;;;;;4982096;28;20227;-73
2022/06/30 10:30:14;;;;;;;5.70;3.63;;;;;;;;;;4999615;28;20334;-73
2022/06/30 10:32:44;;;;;;;8.33;4.13;;;;;;;;;;4985278;28;20222;-73
2022/06/30 10:35:17;;;;;;;14.57;4.40;;;;;;;;;;5001898;28;20223;-72
2022/06/30 10:38:02;;;;;;;4.57;3.50;;;;;;;;;;4989253;28;20314;-71
2022/06/30 10:40:35;;;;;;;5.43;3.37;;;;;;;;;;5004068;28;20300;-72
2022/06/30 10:43:04;;;;;;;5.50;3.57;;;;;;;;;;5002471;28;20841;-72
2022/06/30 10:45:30;;;;;;;11.00;3.80;;;;;;;;;;4999265;28;20231;-73
2022/06/30 10:48:01;;;;;;;6.70;3.33;;;;;;;;;;5001935;28;20239;-72
2022/06/30 10:50:34;;;;;;;5.83;3.53;;;;;;;;;;4994278;28;20232;-72
2022/06/30 10:53:04;;;;;;;4.53;3.40;;;;;;;;;;4988868;28;20223;-73
2022/06/30 10:55:41;;;;;;;5.57;3.60;;;;;;;;;;5001907;28;20231;-72
2022/06/30 10:58:08;;;;;;;5.13;4.07;;;;;;;;;;5002535;28;20676;-72
2022/06/30 11:00:55;;;;;;;5.83;3.53;;;;;;;;;;4986308;28;20262;-72
2022/06/30 11:03:34;;;;;;;5.43;3.53;;;;;;;;;;5002426;28;20234;-73
2022/06/30 11:06:05;;;;;;;5.60;3.67;;;;;;;;;;5000354;28;20215;-73
2022/06/30 11:08:39;;;;;;;4.83;3.53;;;;;;;;;;4984907;28;20232;-73
2022/06/30 11:11:20;;;;;;;6.57;3.53;;;;;;;;;;4993812;28;216819;-73
2022/06/30 11:14:02;;;;;;;4.47;3.40;;;;;;;;;;4995601;28;20220;-72
2022/06/30 11:16:35;;;;;;;5.70;3.70;;;;;;;;;;4997209;28;20231;-69
2022/06/30 11:19:12;;;;;;;5.93;3.77;;;;;;;;;;4998998;28;20225;-70
2022/06/30 11:21:43;;;;;;;3.70;3.30;;;;;;;;;;4997517;28;20746;-73
2022/06/30 11:24:10;;;;;;;9.63;4.17;;;;;;;;;;4998872;28;20651;-71
2022/06/30 11:29:23;;;;;;;4.87;4.23;;;;;;;;;;4970534;28;20232;-71
2022/06/30 11:31:50;;;;;;;5.87;3.87;;;;;;;;;;5002518;28;20297;-71
2022/06/30 11:34:19;;;;;;;5.90;3.60;;;;;;;;;;4993789;28;27897;-72
2022/06/30 11:36:46;;;;;;;5.00;3.60;;;;;;;;;;4991337;28;20734;-74
2022/06/30 11:39:17;;;;;;;8.93;4.00;;;;;;;;;;4999919;28;20233;-72
2022/06/30 11:41:57;;;;;;;4.70;3.60;;;;;;;;;;5001000;28;20741;-72
2022/06/30 11:44:41;;;;;;;3.63;3.33;;;;;;;;;;4988423;28;20224;-72
2022/06/30 11:47:10;;;;;;;5.10;3.50;;;;;;;;;;4985966;28;20564;-71
2022/06/30 11:49:40;;;;;;;6.10;3.97;;;;;;;;;;4979075;28;20305;-72
2022/06/30 11:52:31;;;;;;;5.77;3.53;;;;;;;;;;5001523;28;20232;-72
2022/06/30 11:54:57;;;;;;;3.93;3.30;;;;;;;;;;4989596;28;20238;-72
2022/06/30 11:57:27;;;;;;;6.10;3.27;;;;;;;;;;4993847;28;20575;-72
2022/06/30 11:59:55;;;;;;;5.13;3.50;;;;;;;;;;4984876;28;20387;-72
2022/06/30 12:02:22;;;;;;;6.27;3.60;;;;;;;;;;4998901;28;20290;-75
2022/06/30 12:04:54;;;;;;;5.40;3.87;;;;;;;;;;5003123;28;20256;-71
2022/06/30 12:07:39;;;;;;;5.07;3.43;;;;;;;;;;5001088;28;20629;-72
2022/06/30 12:10:06;;;;;;;6.27;3.73;;;;;;;;;;4989537;28;20231;-71
2022/06/30 12:12:35;;;;;;;4.87;3.80;;;;;;;;;;4996452;28;238996;-72
2022/06/30 12:15:14;;;;;;;6.67;3.93;;;;;;;;;;5003770;28;20294;-71
2022/06/30 12:17:58;;;;;;;5.63;3.70;;;;;;;;;;5004842;28;20215;-72
2022/06/30 12:20:29;;;;;;;8.43;4.17;;;;;;;;;;4989390;28;20586;-70
2022/06/30 12:22:57;;;;;;;7.77;4.53;;;;;;;;;;5004927;28;20661;-72
2022/06/30 12:25:24;;;;;;;4.83;3.50;;;;;;;;;;4987399;28;20235;-73
2022/06/30 12:27:51;;;;;;;6.40;4.07;;;;;;;;;;5005319;28;20230;-71
2022/06/30 12:30:24;;;;;;;4.23;3.83;;;;;;;;;;5001880;28;20686;-72
2022/06/30 12:32:51;;;;;;;4.87;4.27;;;;;;;;;;4993664;28;20308;-72
2022/06/30 13:17:55;;;;;;;5.67;4.13;;;;;;;;;;4988628;28;20273;-71
2022/06/30 13:20:23;;;;;;;6.90;4.33;;;;;;;;;;4981319;28;20258;-71
2022/06/30 13:22:50;;;;;;;4.70;4.03;;;;;;;;;;4966818;28;218752;-71
2022/06/30 13:25:17;;;;;;;5.20;4.30;;;;;;;;;;4896279;28;20246;-71
2022/06/30 13:27:43;;;;;;;9.20;3.87;;;;;;;;;;4980492;28;20674;-71
2022/06/30 13:30:10;;;;;;;5.50;4.07;;;;;;;;;;4945251;28;217330;-71
2022/06/30 13:32:37;;;;;;;25.93;5.03;;;;;;;;;;4980310;28;20595;-69
2022/06/30 13:35:04;;;;;;;5.73;3.83;;;;;;;;;;4995143;28;20300;-69
2022/06/30 13:37:31;;;;;;;5.40;3.70;;;;;;;;;;4999252;28;20627;-68
2022/06/30 13:39:57;;;;;;;9.20;3.77;;;;;;;;;;4985389;28;24824;-70
2022/06/30 13:42:24;;;;;;;4.33;3.83;;;;;;;;;;5000310;28;20515;-68
2022/06/30 13:44:53;;;;;;;5.43;4.00;;;;;;;;;;5003651;28;20275;-68
2022/06/30 13:47:20;;;;;;;4.43;4.03;;;;;;;;;;4997652;28;20235;-68
2022/06/30 13:49:47;;;;;;;8.37;4.17;;;;;;;;;;4997172;28;20227;-69
2022/06/30 13:52:14;;;;;;;4.60;3.80;;;;;;;;;;5002822;28;20230;-69
2022/06/30 13:54:58;;;;;;;5.63;3.97;;;;;;;;;;5001690;28;20230;-74
2022/06/30 13:57:25;;;;;;;6.10;3.77;;;;;;;;;;4957266;28;233089;-72
2022/06/30 13:59:51;;;;;;;4.70;4.23;;;;;;;;;;4925926;28;20695;-72
2022/06/30 14:02:18;;;;;;;4.23;3.70;;;;;;;;;;4974394;28;20235;-73
2022/06/30 14:04:45;;;;;;;5.70;4.50;;;;;;;;;;4761063;28;5091764;-74
2022/06/30 14:07:30;;;;;;;16.03;5.00;;;;;;;;;;4989198;28;217658;-70
2022/06/30 14:09:58;;;;;;;5.50;3.77;;;;;;;;;;4941401;28;220406;-72
2022/06/30 14:12:25;;;;;;;6.40;4.17;;;;;;;;;;4981835;28;20223;-69
2022/06/30 14:14:51;;;;;;;4.50;3.90;;;;;;;;;;4978887;28;220763;-70
2022/06/30 14:17:18;;;;;;;5.30;4.30;;;;;;;;;;4996808;28;20242;-69
2022/06/30 14:19:45;;;;;;;4.50;3.70;;;;;;;;;;4978189;28;20736;-71
2022/06/30 14:22:12;;;;;;;5.53;4.00;;;;;;;;;;4985607;28;20242;-71
2022/06/30 14:24:39;;;;;;;5.80;3.80;;;;;;;;;;5003882;28;20238;-71
2022/06/30 14:27:05;;;;;;;6.97;4.30;;;;;;;;;;4987583;28;20704;-72
2022/06/30 14:29:32;;;;;;;6.43;4.00;;;;;;;;;;5003822;28;20227;-71
2022/06/30 14:31:59;;;;;;;4.40;3.80;;;;;;;;;;5001686;28;20242;-71
2022/06/30 14:34:26;;;;;;;4.87;4.33;;;;;;;;;;5004622;28;20223;-70
2022/06/30 14:36:52;;;;;;;6.37;4.07;;;;;;;;;;5003227;28;20598;-71
2022/06/30 14:39:19;;;;;;;6.13;4.20;;;;;;;;;;5003826;28;20312;-70
2022/06/30 14:44:49;;;;;;;5.33;4.07;;;;;;;;;;4979048;28;20305;-71
2022/06/30 14:47:16;;;;;;;4.23;3.63;;;;;;;;;;4923506;28;222278;-70
2022/06/30 14:49:43;;;;;;;4.67;3.87;;;;;;;;;;4964662;28;229653;-72
2022/06/30 14:52:09;;;;;;;4.70;3.83;;;;;;;;;;4969276;28;241704;-73
2022/06/30 14:54:36;;;;;;;4.40;3.90;;;;;;;;;;4935013;28;20247;-76
2022/06/30 14:57:03;;;;;;;4.60;3.83;;;;;;;;;;4980124;28;20329;-73
2022/06/30 14:59:30;;;;;;;4.90;3.50;;;;;;;;;;4895007;28;20733;-76
2022/06/30 15:01:57;;;;;;;4.17;3.60;;;;;;;;;;4918618;28;219921;-77
2022/06/30 15:04:24;;;;;;;5.70;4.00;;;;;;;;;;4944563;28;221083;-76
2022/06/30 15:06:56;;;;;;;4.67;3.40;;;;;;;;;;4945622;28;234357;-77
2022/06/30 15:09:28;;;;;;;4.90;3.67;;;;;;;;;;4956584;28;20246;-78
2022/06/30 15:11:55;;;;;;;4.07;3.57;;;;;;;;;;4897621;28;20234;-77
2022/06/30 15:14:22;;;;;;;4.53;3.50;;;;;;;;;;4972777;28;20323;-76
2022/06/30 15:16:51;;;;;;;3.57;3.20;;;;;;;;;;4980828;28;20261;-75
2022/06/30 15:19:36;;;;;;;15.30;4.50;;;;;;;;;;4972665;28;20627;-76
2022/06/30 15:24:49;;;;;;;4.20;3.13;;;;;;;;;;4940904;28;29845;-76
2022/06/30 15:27:17;;;;;;;5.63;3.50;;;;;;;;;;4971103;28;41674;-75
2022/06/30 15:29:47;;;;;;;4.63;3.43;;;;;;;;;;4946039;28;282257;-76
2022/06/30 15:32:19;;;;;;;4.53;3.80;;;;;;;;;;4953456;28;216231;-76
2022/06/30 15:34:47;;;;;;;5.37;3.53;;;;;;;;;;4985311;28;20246;-76
2022/06/30 15:37:33;;;;;;;6.57;3.83;;;;;;;;;;5003499;28;20310;-76
2022/06/30 15:40:19;;;;;;;4.20;3.37;;;;;;;;;;5001196;28;20950;-76
2022/06/30 15:42:46;;;;;;;3.90;3.57;;;;;;;;;;5003693;28;20233;-75